Queen Of Nanaimo — VCNX — position and weather

sailwx.info

Track history (hours):
 
Tides and Currents Weather Stations Pressure Air Temp Water Temp Dewpoint Dewpoint Depression Visibility Wind Speed Wind Dir Waves Ship Positions

Queen Of Nanaimo

Last reported at 2014-Aug-28 02:33 UTC. Time now 2014-Aug-28 03:23 UTC.
Position N 49°00' W 123°08'.

Length 130 m; draft 4 m.

Type: Ship. MMSI: 316001254.

Date/timePositionNaut miles runAvg speedWind from/ knotsBaromVisibWave heightAir tempDewpointWater temp
2014-Aug-28 02:33N 49°00' W 123°08'1 0.7
2014-Aug-28 01:34N 48°60' W 123°08'10 9.9
2014-Aug-28 00:33N 48°53' W 123°19'5 1.2
2014-Aug-27 20:31N 48°50' W 123°25'3 3.6
2014-Aug-27 19:33N 48°51' W 123°20'2 2.0
2014-Aug-27 18:33N 48°53' W 123°19'1110.7
2014-Aug-27 17:33N 49°00' W 123°08'0 0.4
2014-Aug-27 16:34N 49°00' W 123°08'1010.3
2014-Aug-27 15:33N 48°53' W 123°19'3 3.0
2014-Aug-27 14:32N 48°50' W 123°20'3 3.0
2014-Aug-27 13:33N 48°50' W 123°25'2 1.5
2014-Aug-27 12:25N 48°51' W 123°27'1 0.2
2014-Aug-27 05:31N 48°50' W 123°25'3 3.5
2014-Aug-27 04:32N 48°51' W 123°20'3 2.6
2014-Aug-27 03:34N 48°53' W 123°18'1010.1
2014-Aug-27 02:33N 49°00' W 123°08'2 2.0
2014-Aug-27 01:33N 48°59' W 123°09'9 8.7
2014-Aug-27 00:33N 48°53' W 123°19'5 1.1
2014-Aug-26 20:20N 48°50' W 123°25'4 5.5
2014-Aug-26 19:33N 48°48' W 123°20'5 4.7
2014-Aug-26 18:33N 48°53' W 123°19'10 9.8
2014-Aug-26 17:33N 48°60' W 123°09'1 0.9
2014-Aug-26 16:33N 49°00' W 123°08'1110.6
2014-Aug-26 15:33N 48°53' W 123°19'2 2.0
2014-Aug-26 14:33N 48°51' W 123°20'3 3.4
2014-Aug-26 13:33N 48°50' W 123°24'2 0.6
2014-Aug-26 09:31N 48°51' W 123°27'3 0.8
2014-Aug-26 05:32N 48°49' W 123°24'3 3.0
2014-Aug-26 04:29N 48°51' W 123°20'8 8.2
2014-Aug-26 03:33N 48°57' W 123°13'5 4.9
2014-Aug-26 02:33N 49°00' W 123°08'6 6.3
2014-Aug-26 01:34N 48°55' W 123°13'6 5.8
2014-Aug-26 00:33N 48°52' W 123°20'4 3.3
2014-Aug-25 23:27N 48°48' W 123°19'6 5.2
2014-Aug-25 22:17N 48°51' W 123°27'0 0.0
2014-Aug-25 21:15N 48°51' W 123°27'0 0.5
2014-Aug-25 20:23N 48°51' W 123°26'5 6.2
2014-Aug-25 19:34N 48°48' W 123°20'5 4.7
2014-Aug-25 18:33N 48°53' W 123°19'1110.8
2014-Aug-25 17:33N 49°00' W 123°08'0 0.0
2014-Aug-25 16:33N 49°00' W 123°08'1110.7
2014-Aug-25 15:33N 48°53' W 123°19'2 1.8
2014-Aug-25 14:29N 48°51' W 123°20'4 3.7
2014-Aug-25 13:33N 48°50' W 123°25'2 0.3
2014-Aug-25 07:16N 48°51' W 123°27'811.7
2014-Aug-25 06:33N 48°55' W 123°16'7 7.4
2014-Aug-25 05:33N 49°00' W 123°08'1110.6
2014-Aug-25 04:33N 48°53' W 123°19'2 2.0
2014-Aug-25 03:33N 48°51' W 123°20'5 5.1
2014-Aug-25 02:34N 48°55' W 123°16'7 7.4
2014-Aug-25 01:33N 49°00' W 123°08'1110.6
2014-Aug-25 00:33N 48°53' W 123°19'5 4.8
2014-Aug-24 23:33N 48°50' W 123°25'2 1.4
2014-Aug-24 22:19N 48°51' W 123°23'1013.5
2014-Aug-24 21:33N 48°58' W 123°11'2 1.8
2014-Aug-24 20:33N 48°59' W 123°09'9 9.2
2014-Aug-24 19:34N 48°53' W 123°18'2 1.5
2014-Aug-24 18:17N 48°51' W 123°20'3 3.8
2014-Aug-24 17:34N 48°53' W 123°18'10 9.7
2014-Aug-24 16:33N 49°00' W 123°08'7 7.0
2014-Aug-24 15:34N 48°55' W 123°14'8 7.8
2014-Aug-24 14:33N 48°51' W 123°25'2 0.2
2014-Aug-24 05:34N 48°51' W 123°22'1312.9
2014-Aug-24 04:33N 49°00' W 123°08'0 0.0
2014-Aug-24 03:33N 49°00' W 123°08'0 0.0
2014-Aug-24 02:33N 49°00' W 123°08'0 0.0
2014-Aug-24 01:33N 49°00' W 123°08'1210.5
2014-Aug-24 00:23N 48°51' W 123°20'5 3.8
2014-Aug-23 23:06N 48°51' W 123°27'6 2.2
2014-Aug-23 20:33N 48°52' W 123°18'1110.7
2014-Aug-23 19:33N 49°00' W 123°08'0 0.0
2014-Aug-23 03:34N 49°00' W 123°08'4 4.2
2014-Aug-23 02:34N 48°57' W 123°11'6 3.2
2014-Aug-23 00:33N 48°53' W 123°19'1110.6
2014-Aug-22 23:33N 49°00' W 123°08'0 0.1
2014-Aug-22 22:33N 49°00' W 123°08'1413.3
2014-Aug-22 21:30N 48°51' W 123°24'1 1.1
2014-Aug-22 20:27N 48°51' W 123°25'4 4.0
2014-Aug-22 19:33N 48°49' W 123°20'3 3.4
2014-Aug-22 18:33N 48°53' W 123°19'1110.7
2014-Aug-22 17:33N 49°00' W 123°08'0 0.1
2014-Aug-22 16:33N 49°00' W 123°08'1110.7
2014-Aug-22 15:34N 48°53' W 123°19'2 2.0
2014-Aug-22 14:33N 48°51' W 123°20'3 3.2
2014-Aug-22 13:33N 48°49' W 123°24'2 0.4
2014-Aug-22 08:26N 48°51' W 123°27'5 1.8
2014-Aug-22 05:33N 48°48' W 123°21'3 2.7
2014-Aug-22 04:31N 48°51' W 123°20'5 5.3
2014-Aug-22 03:34N 48°55' W 123°16'7 7.5
2014-Aug-22 02:33N 49°00' W 123°08'3 2.5
2014-Aug-22 01:33N 48°58' W 123°10'8 8.2
2014-Aug-22 00:33N 48°53' W 123°19'3 3.0
2014-Aug-21 23:34N 48°50' W 123°20'1 0.2
2014-Aug-21 19:14N 48°51' W 123°20'2 2.9
2014-Aug-21 18:33N 48°53' W 123°19'1110.8
2014-Aug-21 17:33N 49°00' W 123°08'0 0.0
2014-Aug-21 16:34N 49°00' W 123°08'1110.7
2014-Aug-21 15:33N 48°53' W 123°19'2 2.1
2014-Aug-21 14:33N 48°51' W 123°20'4 3.4
2014-Aug-21 13:14N 48°51' W 123°27'0 0.0
2014-Aug-21 09:32N 48°51' W 123°27'0 0.0
2014-Aug-21 08:33N 48°51' W 123°27'0 0.0
2014-Aug-21 07:27N 48°51' W 123°27'0 0.0
2014-Aug-21 06:07N 48°51' W 123°27'1 2.2
2014-Aug-21 05:32N 48°50' W 123°25'4 3.5
2014-Aug-21 04:31N 48°51' W 123°20'2 2.1
2014-Aug-21 03:33N 48°53' W 123°19'1110.6
2014-Aug-21 02:33N 49°00' W 123°08'2 1.9
2014-Aug-21 01:33N 48°59' W 123°09'9 8.9
2014-Aug-21 00:33N 48°53' W 123°19'3 3.3
2014-Aug-20 23:33N 48°49' W 123°20'4 1.1
2014-Aug-20 20:25N 48°51' W 123°25'4 4.1
2014-Aug-20 19:33N 48°49' W 123°20'3 3.2
2014-Aug-20 18:33N 48°53' W 123°19'1010.5
2014-Aug-20 17:33N 49°00' W 123°08'0 0.3
2014-Aug-20 16:33N 49°00' W 123°08'1110.7
2014-Aug-20 15:33N 48°53' W 123°19'3 2.5
2014-Aug-20 14:32N 48°50' W 123°20'3 3.0
2014-Aug-20 13:33N 48°50' W 123°25'2 1.0
2014-Aug-20 11:28N 48°51' W 123°27'0 0.0
2014-Aug-20 10:25N 48°51' W 123°27'0 0.0
2014-Aug-20 09:25N 48°51' W 123°27'0 0.0
2014-Aug-20 07:23N 48°51' W 123°27'0 0.0
2014-Aug-20 06:33N 48°51' W 123°27'1 1.0
2014-Aug-20 05:30N 48°51' W 123°25'4 3.8
2014-Aug-20 04:32N 48°51' W 123°20'2 2.0
2014-Aug-20 03:33N 48°53' W 123°19'1110.7
2014-Aug-20 02:33N 49°00' W 123°08'2 2.0
2014-Aug-20 01:33N 48°58' W 123°09'9 8.8
2014-Aug-20 00:33N 48°53' W 123°19'3 3.3
2014-Aug-19 23:32N 48°49' W 123°20'5 4.1
2014-Aug-19 22:26N 48°51' W 123°27'0 0.0
2014-Aug-19 21:10N 48°51' W 123°27'2 2.4
2014-Aug-19 20:25N 48°50' W 123°25'3 3.4
2014-Aug-19 19:31N 48°51' W 123°20'2 2.1
2014-Aug-19 18:31N 48°53' W 123°19'1111.1
2014-Aug-19 17:33N 49°00' W 123°08'0 0.0
2014-Aug-19 16:33N 49°00' W 123°08'1110.7
2014-Aug-19 15:34N 48°53' W 123°19'2 2.0
2014-Aug-19 14:32N 48°51' W 123°20'3 3.2
2014-Aug-19 13:33N 48°50' W 123°25'2 0.3
2014-Aug-19 07:30N 48°51' W 123°27'1 0.6
2014-Aug-19 05:30N 48°51' W 123°25'4 3.9
2014-Aug-19 04:31N 48°51' W 123°20'3 3.5
2014-Aug-19 03:33N 48°54' W 123°17'9 9.1
2014-Aug-19 02:33N 49°00' W 123°08'7 7.1
2014-Aug-19 01:33N 48°55' W 123°15'8 3.2
2014-Aug-18 23:13N 48°48' W 123°19'5 1.8
2014-Aug-18 20:28N 48°50' W 123°25'3 3.7
2014-Aug-18 19:33N 48°50' W 123°20'3 2.7
2014-Aug-18 18:33N 48°53' W 123°19'1110.7
2014-Aug-18 17:33N 49°00' W 123°08'0 0.0
2014-Aug-18 16:33N 49°00' W 123°08'1110.6
2014-Aug-18 15:33N 48°53' W 123°19'2 1.9
2014-Aug-18 14:32N 48°51' W 123°20'3 3.4
2014-Aug-18 13:33N 48°49' W 123°24'2 2.2
2014-Aug-18 12:31N 48°51' W 123°27'0 0.0
2014-Aug-18 11:08N 48°51' W 123°27'1 0.3
2014-Aug-18 07:06N 48°50' W 123°25'713.7
2014-Aug-18 06:33N 48°55' W 123°16'8 7.8
2014-Aug-18 05:33N 49°00' W 123°08'1110.6
2014-Aug-18 04:33N 48°53' W 123°19'2 1.9
2014-Aug-18 03:33N 48°51' W 123°20'6 6.5
2014-Aug-18 02:33N 48°56' W 123°14'  
Track history (hours):
 
Tides and Currents Weather Stations Pressure Air Temp Water Temp Dewpoint Dewpoint Depression Visibility Wind Speed Wind Dir Waves Ship Positions

Queen Of Nanaimo

Last reported at 2014-Aug-28 02:33 UTC. Time now 2014-Aug-28 03:23 UTC.
Position N 49°00' W 123°08'.

Length 130 m; draft 4 m.

Type: Ship. MMSI: 316001254.

Date/timePositionNaut miles runAvg speedWind from/ knotsBaromVisibWave heightAir tempDewpointWater temp
2014-Aug-28 02:33N 49°00' W 123°08'1 0.7
2014-Aug-28 01:34N 48°60' W 123°08'10 9.9
2014-Aug-28 00:33N 48°53' W 123°19'5 1.2
2014-Aug-27 20:31N 48°50' W 123°25'3 3.6
2014-Aug-27 19:33N 48°51' W 123°20'2 2.0
2014-Aug-27 18:33N 48°53' W 123°19'1110.7
2014-Aug-27 17:33N 49°00' W 123°08'0 0.4
2014-Aug-27 16:34N 49°00' W 123°08'1010.3
2014-Aug-27 15:33N 48°53' W 123°19'3 3.0
2014-Aug-27 14:32N 48°50' W 123°20'3 3.0
2014-Aug-27 13:33N 48°50' W 123°25'2 1.5
2014-Aug-27 12:25N 48°51' W 123°27'1 0.2
2014-Aug-27 05:31N 48°50' W 123°25'3 3.5
2014-Aug-27 04:32N 48°51' W 123°20'3 2.6
2014-Aug-27 03:34N 48°53' W 123°18'1010.1
2014-Aug-27 02:33N 49°00' W 123°08'2 2.0
2014-Aug-27 01:33N 48°59' W 123°09'9 8.7
2014-Aug-27 00:33N 48°53' W 123°19'5 1.1
2014-Aug-26 20:20N 48°50' W 123°25'4 5.5
2014-Aug-26 19:33N 48°48' W 123°20'5 4.7
2014-Aug-26 18:33N 48°53' W 123°19'10 9.8
2014-Aug-26 17:33N 48°60' W 123°09'1 0.9
2014-Aug-26 16:33N 49°00' W 123°08'1110.6
2014-Aug-26 15:33N 48°53' W 123°19'2 2.0
2014-Aug-26 14:33N 48°51' W 123°20'3 3.4
2014-Aug-26 13:33N 48°50' W 123°24'2 0.6
2014-Aug-26 09:31N 48°51' W 123°27'3 0.8
2014-Aug-26 05:32N 48°49' W 123°24'3 3.0
2014-Aug-26 04:29N 48°51' W 123°20'8 8.2
2014-Aug-26 03:33N 48°57' W 123°13'5 4.9
2014-Aug-26 02:33N 49°00' W 123°08'6 6.3
2014-Aug-26 01:34N 48°55' W 123°13'6 5.8
2014-Aug-26 00:33N 48°52' W 123°20'4 3.3
2014-Aug-25 23:27N 48°48' W 123°19'6 5.2
2014-Aug-25 22:17N 48°51' W 123°27'0 0.0
2014-Aug-25 21:15N 48°51' W 123°27'0 0.5
2014-Aug-25 20:23N 48°51' W 123°26'5 6.2
2014-Aug-25 19:34N 48°48' W 123°20'5 4.7
2014-Aug-25 18:33N 48°53' W 123°19'1110.8
2014-Aug-25 17:33N 49°00' W 123°08'0 0.0
2014-Aug-25 16:33N 49°00' W 123°08'1110.7
2014-Aug-25 15:33N 48°53' W 123°19'2 1.8
2014-Aug-25 14:29N 48°51' W 123°20'4 3.7
2014-Aug-25 13:33N 48°50' W 123°25'2 0.3
2014-Aug-25 07:16N 48°51' W 123°27'811.7
2014-Aug-25 06:33N 48°55' W 123°16'7 7.4
2014-Aug-25 05:33N 49°00' W 123°08'1110.6
2014-Aug-25 04:33N 48°53' W 123°19'2 2.0
2014-Aug-25 03:33N 48°51' W 123°20'5 5.1
2014-Aug-25 02:34N 48°55' W 123°16'7 7.4
2014-Aug-25 01:33N 49°00' W 123°08'1110.6
2014-Aug-25 00:33N 48°53' W 123°19'5 4.8
2014-Aug-24 23:33N 48°50' W 123°25'2 1.4
2014-Aug-24 22:19N 48°51' W 123°23'1013.5
2014-Aug-24 21:33N 48°58' W 123°11'2 1.8
2014-Aug-24 20:33N 48°59' W 123°09'9 9.2
2014-Aug-24 19:34N 48°53' W 123°18'2 1.5
2014-Aug-24 18:17N 48°51' W 123°20'3 3.8
2014-Aug-24 17:34N 48°53' W 123°18'10 9.7
2014-Aug-24 16:33N 49°00' W 123°08'7 7.0
2014-Aug-24 15:34N 48°55' W 123°14'8 7.8
2014-Aug-24 14:33N 48°51' W 123°25'2 0.2
2014-Aug-24 05:34N 48°51' W 123°22'1312.9
2014-Aug-24 04:33N 49°00' W 123°08'0 0.0
2014-Aug-24 03:33N 49°00' W 123°08'0 0.0
2014-Aug-24 02:33N 49°00' W 123°08'0 0.0
2014-Aug-24 01:33N 49°00' W 123°08'1210.5
2014-Aug-24 00:23N 48°51' W 123°20'5 3.8
2014-Aug-23 23:06N 48°51' W 123°27'6 2.2
2014-Aug-23 20:33N 48°52' W 123°18'1110.7
2014-Aug-23 19:33N 49°00' W 123°08'0 0.0
2014-Aug-23 03:34N 49°00' W 123°08'4 4.2
2014-Aug-23 02:34N 48°57' W 123°11'6 3.2
2014-Aug-23 00:33N 48°53' W 123°19'1110.6
2014-Aug-22 23:33N 49°00' W 123°08'0 0.1
2014-Aug-22 22:33N 49°00' W 123°08'1413.3
2014-Aug-22 21:30N 48°51' W 123°24'1 1.1
2014-Aug-22 20:27N 48°51' W 123°25'4 4.0
2014-Aug-22 19:33N 48°49' W 123°20'3 3.4
2014-Aug-22 18:33N 48°53' W 123°19'1110.7
2014-Aug-22 17:33N 49°00' W 123°08'0 0.1
2014-Aug-22 16:33N 49°00' W 123°08'1110.7
2014-Aug-22 15:34N 48°53' W 123°19'2 2.0
2014-Aug-22 14:33N 48°51' W 123°20'3 3.2
2014-Aug-22 13:33N 48°49' W 123°24'2 0.4
2014-Aug-22 08:26N 48°51' W 123°27'5 1.8
2014-Aug-22 05:33N 48°48' W 123°21'3 2.7
2014-Aug-22 04:31N 48°51' W 123°20'5 5.3
2014-Aug-22 03:34N 48°55' W 123°16'7 7.5
2014-Aug-22 02:33N 49°00' W 123°08'3 2.5
2014-Aug-22 01:33N 48°58' W 123°10'8 8.2
2014-Aug-22 00:33N 48°53' W 123°19'3 3.0
2014-Aug-21 23:34N 48°50' W 123°20'1 0.2
2014-Aug-21 19:14N 48°51' W 123°20'2 2.9
2014-Aug-21 18:33N 48°53' W 123°19'1110.8
2014-Aug-21 17:33N 49°00' W 123°08'0 0.0
2014-Aug-21 16:34N 49°00' W 123°08'1110.7
2014-Aug-21 15:33N 48°53' W 123°19'2 2.1
2014-Aug-21 14:33N 48°51' W 123°20'4 3.4
2014-Aug-21 13:14N 48°51' W 123°27'0 0.0
2014-Aug-21 09:32N 48°51' W 123°27'0 0.0
2014-Aug-21 08:33N 48°51' W 123°27'0 0.0
2014-Aug-21 07:27N 48°51' W 123°27'0 0.0
2014-Aug-21 06:07N 48°51' W 123°27'1 2.2
2014-Aug-21 05:32N 48°50' W 123°25'4 3.5
2014-Aug-21 04:31N 48°51' W 123°20'2 2.1
2014-Aug-21 03:33N 48°53' W 123°19'1110.6
2014-Aug-21 02:33N 49°00' W 123°08'2 1.9
2014-Aug-21 01:33N 48°59' W 123°09'9 8.9
2014-Aug-21 00:33N 48°53' W 123°19'3 3.3
2014-Aug-20 23:33N 48°49' W 123°20'4 1.1
2014-Aug-20 20:25N 48°51' W 123°25'4 4.1
2014-Aug-20 19:33N 48°49' W 123°20'3 3.2
2014-Aug-20 18:33N 48°53' W 123°19'1010.5
2014-Aug-20 17:33N 49°00' W 123°08'0 0.3
2014-Aug-20 16:33N 49°00' W 123°08'1110.7
2014-Aug-20 15:33N 48°53' W 123°19'3 2.5
2014-Aug-20 14:32N 48°50' W 123°20'3 3.0
2014-Aug-20 13:33N 48°50' W 123°25'2 1.0
2014-Aug-20 11:28N 48°51' W 123°27'0 0.0
2014-Aug-20 10:25N 48°51' W 123°27'0 0.0
2014-Aug-20 09:25N 48°51' W 123°27'0 0.0
2014-Aug-20 07:23N 48°51' W 123°27'0 0.0
2014-Aug-20 06:33N 48°51' W 123°27'1 1.0
2014-Aug-20 05:30N 48°51' W 123°25'4 3.8
2014-Aug-20 04:32N 48°51' W 123°20'2 2.0
2014-Aug-20 03:33N 48°53' W 123°19'1110.7
2014-Aug-20 02:33N 49°00' W 123°08'2 2.0
2014-Aug-20 01:33N 48°58' W 123°09'9 8.8
2014-Aug-20 00:33N 48°53' W 123°19'3 3.3
2014-Aug-19 23:32N 48°49' W 123°20'5 4.1
2014-Aug-19 22:26N 48°51' W 123°27'0 0.0
2014-Aug-19 21:10N 48°51' W 123°27'2 2.4
2014-Aug-19 20:25N 48°50' W 123°25'3 3.4
2014-Aug-19 19:31N 48°51' W 123°20'2 2.1
2014-Aug-19 18:31N 48°53' W 123°19'1111.1
2014-Aug-19 17:33N 49°00' W 123°08'0 0.0
2014-Aug-19 16:33N 49°00' W 123°08'1110.7
2014-Aug-19 15:34N 48°53' W 123°19'2 2.0
2014-Aug-19 14:32N 48°51' W 123°20'3 3.2
2014-Aug-19 13:33N 48°50' W 123°25'2 0.3
2014-Aug-19 07:30N 48°51' W 123°27'1 0.6
2014-Aug-19 05:30N 48°51' W 123°25'4 3.9
2014-Aug-19 04:31N 48°51' W 123°20'3 3.5
2014-Aug-19 03:33N 48°54' W 123°17'9 9.1
2014-Aug-19 02:33N 49°00' W 123°08'7 7.1
2014-Aug-19 01:33N 48°55' W 123°15'8 3.2
2014-Aug-18 23:13N 48°48' W 123°19'5 1.8
2014-Aug-18 20:28N 48°50' W 123°25'3 3.7
2014-Aug-18 19:33N 48°50' W 123°20'3 2.7
2014-Aug-18 18:33N 48°53' W 123°19'1110.7
2014-Aug-18 17:33N 49°00' W 123°08'0 0.0
2014-Aug-18 16:33N 49°00' W 123°08'1110.6
2014-Aug-18 15:33N 48°53' W 123°19'2 1.9
2014-Aug-18 14:32N 48°51' W 123°20'3 3.4
2014-Aug-18 13:33N 48°49' W 123°24'2 2.2
2014-Aug-18 12:31N 48°51' W 123°27'0 0.0
2014-Aug-18 11:08N 48°51' W 123°27'1 0.3
2014-Aug-18 07:06N 48°50' W 123°25'713.7
2014-Aug-18 06:33N 48°55' W 123°16'8 7.8
2014-Aug-18 05:33N 49°00' W 123°08'1110.6
2014-Aug-18 04:33N 48°53' W 123°19'2 1.9
2014-Aug-18 03:33N 48°51' W 123°20'6 6.5
2014-Aug-18 02:33N 48°56' W 123°14'  

Dump ship's entire track history